Calgary, Canada
Current Conditions -  °F | °C
As of 2:00 AM on Sunday 26 Oct 2014 (Local Time) from CYYC Reporting Station
Broken Clouds Broken Clouds  
Wind Chill:   Ceiling: 21000
Heat Index:   Visibility: 15mi
Dew Point:   Wind: 5mph
Humidity: 75%   Direction: 330°NNW
Pressure: 29.37"   Gusts: NA
Location:  51.05°N, 114.06°W
Report Text: CYYC 260800Z 33004KT 15SM BKN210 04/00 A2937 RMK CI6 SLP971 DENSITY ALT 3700FT
Loading
Personal Weather Stations






























Interactive Weather Map New forecast layout! Learn more

10-Day Weather Forecast

Advertisements
Track Severe Weather on mobile